Time;durP1;ratioP1;P1;durP2;ratioP2;P2;SDS_P1;SDS_P2;PMS_P1;PMS_P2;Temp;Humidity;BMP_temperature;BMP_pressure;BME280_temperature;BME280_humidity;BME280_pressure;Samples;Min_cycle;Max_cycle;Signal;HPM_P1;HPM_P2
2022/07/17 00:00:15;;;;;;;12.27;3.03;;;;;;;11.29;100.00;100218.41;4191093;28;20237;-68
2022/07/17 00:02:41;;;;;;;7.90;2.47;;;;;;;11.30;100.00;100218.22;4193982;28;20265;-67
2022/07/17 00:05:08;;;;;;;6.33;2.57;;;;;;;11.27;100.00;100223.03;4195880;28;21189;-70
2022/07/17 00:07:35;;;;;;;8.13;3.00;;;;;;;11.24;100.00;100224.19;4203448;28;20233;-69
2022/07/17 00:10:04;;;;;;;4.10;2.30;;;;;;;11.31;100.00;100227.91;4182510;28;20245;-67
2022/07/17 00:12:30;;;;;;;11.27;2.70;;;;;;;11.24;100.00;100232.19;4198599;28;21172;-69
2022/07/17 00:14:57;;;;;;;9.47;2.30;;;;;;;11.36;100.00;100238.09;4204708;28;20237;-69
2022/07/17 00:17:23;;;;;;;3.37;2.00;;;;;;;11.24;100.00;100234.84;4197510;28;20373;-68
2022/07/17 00:19:50;;;;;;;4.60;2.40;;;;;;;11.25;100.00;100241.84;4188802;28;20820;-67
2022/07/17 00:22:17;;;;;;;9.00;3.00;;;;;;;11.29;100.00;100237.88;4196192;28;20236;-69
2022/07/17 00:24:44;;;;;;;8.23;2.70;;;;;;;11.28;100.00;100241.50;4196874;28;20243;-68
2022/07/17 00:27:11;;;;;;;8.83;2.60;;;;;;;11.22;100.00;100247.47;4192881;28;20295;-68
2022/07/17 00:29:37;;;;;;;7.07;2.77;;;;;;;11.19;100.00;100242.44;4192271;28;20232;-69
2022/07/17 00:32:04;;;;;;;12.30;3.03;;;;;;;11.15;100.00;100243.75;4198831;28;20662;-69
2022/07/17 00:34:31;;;;;;;8.67;2.90;;;;;;;11.26;100.00;100256.84;4190587;28;21106;-70
2022/07/17 00:36:57;;;;;;;6.93;2.80;;;;;;;11.27;100.00;100255.84;4180397;28;22878;-71
2022/07/17 00:39:24;;;;;;;6.27;2.70;;;;;;;11.24;100.00;100255.28;4199402;28;20229;-69
2022/07/17 00:41:51;;;;;;;11.33;4.00;;;;;;;11.27;100.00;100255.84;4199945;28;20847;-70
2022/07/17 00:44:17;;;;;;;7.10;3.10;;;;;;;11.24;100.00;100256.16;4208980;28;20624;-69
2022/07/17 00:46:44;;;;;;;8.83;3.20;;;;;;;11.21;100.00;100261.78;4204152;28;20238;-69
2022/07/17 00:49:11;;;;;;;9.30;2.63;;;;;;;11.16;100.00;100258.72;4200618;28;20228;-69
2022/07/17 00:51:38;;;;;;;7.03;2.87;;;;;;;11.21;100.00;100261.78;4201347;28;20252;-68
2022/07/17 00:54:06;;;;;;;5.53;2.67;;;;;;;11.22;100.00;100262.63;4210531;28;20247;-71
2022/07/17 00:56:36;;;;;;;5.43;2.33;;;;;;;11.29;100.00;100264.50;4197773;28;20267;-69
2022/07/17 00:59:03;;;;;;;6.93;2.97;;;;;;;11.19;100.00;100269.94;4196209;28;21434;-67
2022/07/17 01:01:30;;;;;;;6.23;2.63;;;;;;;11.08;100.00;100269.34;4205462;28;21819;-68
2022/07/17 01:03:58;;;;;;;8.53;3.00;;;;;;;11.10;100.00;100280.66;4200146;28;20284;-69
2022/07/17 01:06:25;;;;;;;5.57;3.07;;;;;;;11.05;100.00;100283.78;4188734;28;20240;-68
2022/07/17 01:08:54;;;;;;;10.93;3.60;;;;;;;11.03;100.00;100285.75;4198791;28;20253;-68
2022/07/17 01:11:22;;;;;;;7.17;3.23;;;;;;;10.96;100.00;100288.19;4190485;28;22127;-69
2022/07/17 01:13:49;;;;;;;7.37;3.33;;;;;;;10.98;100.00;100288.03;4202242;28;20227;-67
2022/07/17 01:16:16;;;;;;;7.70;3.50;;;;;;;10.80;100.00;100288.00;4194100;28;20259;-70
2022/07/17 01:18:42;;;;;;;7.30;3.50;;;;;;;10.87;100.00;100282.94;4206710;28;20398;-67
2022/07/17 01:21:09;;;;;;;10.77;3.93;;;;;;;10.78;100.00;100288.16;4201912;28;21572;-67
2022/07/17 01:23:36;;;;;;;10.07;3.97;;;;;;;10.78;100.00;100288.16;4201298;28;20229;-68
2022/07/17 01:26:02;;;;;;;14.07;3.90;;;;;;;10.75;100.00;100285.81;4203505;28;20244;-67
2022/07/17 01:28:30;;;;;;;17.50;4.90;;;;;;;10.68;100.00;100286.56;4175268;28;23939;-68
2022/07/17 01:30:57;;;;;;;11.20;4.10;;;;;;;10.66;100.00;100284.03;4198355;28;20905;-68
2022/07/17 01:33:23;;;;;;;9.07;4.40;;;;;;;10.67;100.00;100284.88;4185664;28;21567;-68
2022/07/17 01:35:50;;;;;;;10.73;5.47;;;;;;;10.57;100.00;100293.75;4203547;28;20228;-69
2022/07/17 01:38:17;;;;;;;11.00;4.90;;;;;;;10.53;100.00;100287.03;4212300;28;21114;-68
2022/07/17 01:40:44;;;;;;;11.83;4.77;;;;;;;10.53;100.00;100295.00;4207848;28;20233;-68
2022/07/17 01:43:11;;;;;;;10.00;5.43;;;;;;;10.49;100.00;100298.16;4204829;28;20246;-70
2022/07/17 01:45:37;;;;;;;10.47;4.90;;;;;;;10.43;100.00;100296.91;4194450;28;20307;-70
2022/07/17 01:48:04;;;;;;;11.70;4.97;;;;;;;10.33;100.00;100285.47;4203530;28;20240;-68
2022/07/17 01:50:32;;;;;;;11.13;4.97;;;;;;;10.36;100.00;100295.81;4216989;28;20259;-68
2022/07/17 01:52:58;;;;;;;19.10;5.90;;;;;;;10.31;100.00;100298.09;4201580;28;20402;-69
2022/07/17 01:55:25;;;;;;;11.60;5.80;;;;;;;10.31;100.00;100303.41;4208515;28;20665;-69
2022/07/17 01:57:51;;;;;;;13.87;5.10;;;;;;;10.31;100.00;100303.41;4204574;28;20244;-69
2022/07/17 02:00:18;;;;;;;9.60;4.67;;;;;;;10.37;100.00;100305.47;4193875;28;20288;-68
2022/07/17 02:02:45;;;;;;;11.43;4.73;;;;;;;10.34;100.00;100311.09;4200630;28;25265;-68
2022/07/17 02:05:12;;;;;;;9.57;5.43;;;;;;;10.44;100.00;100311.91;4200509;28;20242;-69
2022/07/17 02:07:39;;;;;;;13.23;4.77;;;;;;;10.43;100.00;100304.88;4195156;28;20311;-68
2022/07/17 02:10:09;;;;;;;9.93;4.83;;;;;;;10.47;100.00;100313.41;4200008;28;20250;-68
2022/07/17 02:12:37;;;;;;;10.43;5.30;;;;;;;10.38;100.00;100315.13;4185516;28;22326;-68
2022/07/17 02:15:05;;;;;;;13.67;5.43;;;;;;;10.44;100.00;100316.34;4206068;28;20311;-68
2022/07/17 02:17:31;;;;;;;12.83;5.20;;;;;;;10.31;100.00;100322.03;4189678;28;20262;-67
2022/07/17 02:19:58;;;;;;;10.47;5.00;;;;;;;10.42;100.00;100316.53;4200039;28;21017;-66
2022/07/17 02:22:24;;;;;;;14.33;5.37;;;;;;;10.36;100.00;100317.09;4208542;28;20228;-68
2022/07/17 02:24:51;;;;;;;14.43;5.60;;;;;;;10.42;100.00;100316.53;4194908;28;25615;-68
2022/07/17 02:27:17;;;;;;;11.93;5.37;;;;;;;10.44;100.00;100317.22;4200556;28;20378;-68
2022/07/17 02:29:44;;;;;;;16.23;5.60;;;;;;;10.43;100.00;100318.19;4204548;28;20245;-66
2022/07/17 02:32:10;;;;;;;12.93;5.30;;;;;;;10.43;100.00;100310.19;4205644;28;20229;-67
2022/07/17 02:34:37;;;;;;;10.17;5.37;;;;;;;10.43;100.00;100315.53;4194152;28;20887;-67
2022/07/17 02:37:03;;;;;;;15.83;5.93;;;;;;;10.43;100.00;100304.88;4197074;28;20243;-68
2022/07/17 02:39:30;;;;;;;14.07;5.40;;;;;;;10.36;100.00;100306.47;4201273;28;23006;-67
2022/07/17 02:41:56;;;;;;;12.80;6.30;;;;;;;10.47;100.00;100308.94;4190933;28;20245;-69
2022/07/17 02:44:23;;;;;;;15.27;5.50;;;;;;;10.45;100.00;100312.72;4199598;28;21721;-67
2022/07/17 02:46:50;;;;;;;13.07;6.07;;;;;;;10.41;100.00;100316.66;4208023;28;20304;-66
2022/07/17 02:49:16;;;;;;;17.47;5.63;;;;;;;10.49;100.00;100320.25;4206628;28;20232;-67
2022/07/17 02:51:42;;;;;;;10.57;5.10;;;;;;;10.50;100.00;100313.94;4189693;28;21754;-66
2022/07/17 02:54:09;;;;;;;16.60;6.30;;;;;;;10.49;100.00;100320.25;4191662;28;20251;-67
2022/07/17 02:56:35;;;;;;;13.57;5.93;;;;;;;10.48;100.00;100326.56;4196935;28;20232;-66
2022/07/17 02:59:02;;;;;;;18.20;6.53;;;;;;;10.50;100.00;100316.59;4193231;28;20755;-67
2022/07/17 03:01:29;;;;;;;12.40;5.43;;;;;;;10.56;100.00;100317.84;4191382;28;20236;-67
2022/07/17 03:03:56;;;;;;;17.80;6.43;;;;;;;10.54;100.00;100318.00;4197327;28;20343;-66
2022/07/17 03:06:22;;;;;;;17.80;6.27;;;;;;;10.55;100.00;100324.16;4189794;28;20240;-67
2022/07/17 03:08:50;;;;;;;14.93;6.07;;;;;;;10.67;100.00;100328.28;4189193;28;20299;-68
2022/07/17 03:11:17;;;;;;;20.73;6.63;;;;;;;10.63;100.00;100332.25;4187313;28;21739;-69
2022/07/17 03:13:43;;;;;;;14.63;6.57;;;;;;;10.62;100.00;100335.03;4182181;28;21467;-67
2022/07/17 03:16:10;;;;;;;16.93;6.33;;;;;;;10.65;100.00;100334.75;4183404;28;20645;-68
2022/07/17 03:18:36;;;;;;;12.90;6.30;;;;;;;10.71;100.00;100347.47;4189964;28;20239;-69
2022/07/17 03:21:03;;;;;;;17.27;6.50;;;;;;;10.64;100.00;100347.22;4181114;28;23642;-67
2022/07/17 03:23:31;;;;;;;15.17;6.17;;;;;;;10.63;100.00;100348.22;4196196;28;20252;-69
2022/07/17 03:25:57;;;;;;;18.77;6.60;;;;;;;10.81;100.00;100358.06;4182074;28;20357;-66
2022/07/17 03:28:24;;;;;;;17.07;5.90;;;;;;;10.80;100.00;100359.88;4195496;28;20548;-68
2022/07/17 03:30:50;;;;;;;15.87;5.83;;;;;;;10.90;100.00;100368.66;4189954;28;20838;-67
2022/07/17 03:33:17;;;;;;;10.50;5.00;;;;;;;10.98;100.00;100363.44;4184577;28;25515;-66
2022/07/17 03:35:43;;;;;;;14.70;5.07;;;;;;;11.00;100.00;100371.25;4198748;28;20237;-67
2022/07/17 03:38:10;;;;;;;14.57;6.10;;;;;;;11.00;100.00;100365.91;4176662;28;20238;-68
2022/07/17 03:40:36;;;;;;;13.53;5.33;;;;;;;11.07;100.00;100376.81;4187993;28;20239;-67
2022/07/17 03:43:03;;;;;;;16.27;5.77;;;;;;;11.03;100.00;100368.31;4193547;28;22764;-69
2022/07/17 03:45:30;;;;;;;14.97;5.97;;;;;;;11.11;100.00;100372.88;4172872;28;24328;-68
2022/07/17 03:47:57;;;;;;;12.17;5.03;;;;;;;11.08;100.00;100373.19;4190458;28;22340;-67
2022/07/17 03:50:23;;;;;;;10.20;5.00;;;;;;;11.11;100.00;100378.19;4183969;28;20325;-67
2022/07/17 03:52:50;;;;;;;14.70;5.50;;;;;;;11.19;100.00;100370.28;4189546;28;20244;-67
2022/07/17 03:55:17;;;;;;;11.70;5.43;;;;;;;11.30;100.00;100374.56;4193277;28;20232;-69
2022/07/17 03:57:43;;;;;;;7.97;4.77;;;;;;;11.31;100.00;100369.09;4193211;28;20280;-67
2022/07/17 04:00:10;;;;;;;13.30;5.20;;;;;;;11.33;100.00;100369.78;4190596;28;20571;-67
2022/07/17 04:02:36;;;;;;;15.17;5.00;;;;;;;11.39;100.00;100374.50;4196996;28;21871;-67
2022/07/17 04:05:04;;;;;;;20.00;5.17;;;;;;;11.37;100.00;100373.81;4195124;28;20340;-68
2022/07/17 04:07:31;;;;;;;12.63;4.67;;;;;;;11.34;100.00;100382.09;4179075;28;20353;-70
2022/07/17 04:09:58;;;;;;;12.07;4.90;;;;;;;11.38;100.00;100382.66;4178620;28;20293;-69
2022/07/17 04:12:26;;;;;;;10.90;4.90;;;;;;;11.52;100.00;100389.25;4172899;28;20288;-67
2022/07/17 04:14:52;;;;;;;11.03;4.50;;;;;;;11.47;100.00;100391.53;4185399;28;20239;-68
2022/07/17 04:17:19;;;;;;;13.57;4.20;;;;;;;11.46;100.00;100387.22;4180620;28;22386;-68
2022/07/17 04:19:45;;;;;;;12.53;4.57;;;;;;;11.52;100.00;100392.78;4180345;28;20237;-68
2022/07/17 04:22:12;;;;;;;12.60;4.97;;;;;;;11.61;100.00;100396.34;4178048;28;20282;-67
2022/07/17 04:24:39;;;;;;;14.17;4.73;;;;;;;11.64;100.00;100396.06;4180103;28;22854;-67
2022/07/17 04:27:05;;;;;;;9.37;4.33;;;;;;;11.73;100.00;100396.94;4186707;28;20233;-67
2022/07/17 04:29:32;;;;;;;8.73;4.27;;;;;;;11.87;100.00;100398.22;4181655;28;20233;-66
2022/07/17 04:31:58;;;;;;;8.13;4.10;;;;;;;12.09;100.00;100397.78;4183621;28;20926;-68
2022/07/17 04:34:25;;;;;;;13.47;3.87;;;;;;;12.14;100.00;100405.31;4194549;28;20237;-67
2022/07/17 04:36:51;;;;;;;11.07;3.47;;;;;;;12.31;100.00;100400.91;4171280;28;20252;-67
2022/07/17 04:39:18;;;;;;;7.40;3.00;;;;;;;12.53;100.00;100396.91;4177873;28;20364;-68
2022/07/17 04:41:45;;;;;;;11.63;3.20;;;;;;;12.64;100.00;100399.28;4182576;28;20245;-68
2022/07/17 04:44:11;;;;;;;6.90;3.10;;;;;;;12.87;100.00;100407.56;4176803;28;20298;-67
2022/07/17 04:46:38;;;;;;;7.90;2.90;;;;;;;13.19;100.00;100404.16;4183308;28;20316;-67
2022/07/17 04:49:05;;;;;;;5.20;2.53;;;;;;;13.34;100.00;100407.06;4185462;28;20435;-67
2022/07/17 04:51:32;;;;;;;8.50;2.40;;;;;;;13.25;100.00;100405.34;4174599;28;20681;-68
2022/07/17 04:53:58;;;;;;;12.87;2.47;;;;;;;13.23;100.00;100410.03;4179350;28;21036;-66
2022/07/17 04:56:25;;;;;;;4.30;2.20;;;;;;;13.32;100.00;100417.06;4171699;28;20250;-68
2022/07/17 04:58:52;;;;;;;10.10;3.00;;;;;;;13.35;100.00;100419.44;4182663;28;20667;-68
2022/07/17 05:01:19;;;;;;;12.17;3.03;;;;;;;13.21;100.00;100420.06;4197712;28;20242;-67
2022/07/17 05:03:46;;;;;;;10.67;2.70;;;;;;;13.27;100.00;100422.94;4197947;28;20252;-68
2022/07/17 05:06:12;;;;;;;7.47;2.87;;;;;;;13.25;100.00;100426.72;4190283;28;21399;-69
2022/07/17 05:08:39;;;;;;;9.87;2.63;;;;;;;13.23;100.00;100426.91;4198561;28;20237;-70
2022/07/17 05:11:05;;;;;;;7.40;2.60;;;;;;;13.29;100.00;100420.09;4190286;28;20230;-67
2022/07/17 05:13:32;;;;;;;6.40;2.77;;;;;;;13.28;100.00;100431.78;4195813;28;20702;-69
2022/07/17 05:15:59;;;;;;;11.70;2.70;;;;;;;13.54;100.00;100433.53;4200100;28;20430;-68
2022/07/17 05:18:25;;;;;;;6.13;2.20;;;;;;;13.82;100.00;100426.88;4194524;28;22680;-67
2022/07/17 05:20:52;;;;;;;11.70;2.60;;;;;;;13.89;99.33;100435.91;4188024;28;23048;-68
2022/07/17 05:23:18;;;;;;;8.57;2.00;;;;;;;13.93;99.71;100434.56;4184833;28;20234;-76
2022/07/17 05:25:46;;;;;;;9.37;2.87;;;;;;;13.89;99.06;100441.25;4189971;28;20248;-77
2022/07/17 05:28:13;;;;;;;13.40;2.40;;;;;;;14.01;98.50;100440.91;4192697;28;22115;-77
2022/07/17 05:30:39;;;;;;;9.33;2.40;;;;;;;14.12;98.01;100441.41;4188077;28;20240;-75
2022/07/17 05:33:06;;;;;;;9.43;2.47;;;;;;;13.89;97.92;100443.94;4211308;28;20240;-63
2022/07/17 05:35:32;;;;;;;11.80;2.70;;;;;;;13.87;98.92;100451.28;4203726;28;21693;-68
2022/07/17 05:37:59;;;;;;;8.67;2.80;;;;;;;13.68;100.00;100441.72;4191846;28;20244;-67
2022/07/17 05:40:25;;;;;;;7.90;2.70;;;;;;;13.70;100.00;100454.94;4195463;28;20237;-63
2022/07/17 05:42:52;;;;;;;7.20;2.40;;;;;;;13.70;100.00;100458.44;4193563;28;20423;-69
2022/07/17 05:45:19;;;;;;;10.47;2.50;;;;;;;13.60;100.00;100454.25;4190037;28;20446;-70
2022/07/17 05:47:45;;;;;;;14.20;2.80;;;;;;;13.74;100.00;100458.94;4186845;28;20332;-70
2022/07/17 05:50:12;;;;;;;8.43;3.77;;;;;;;13.84;100.00;100466.84;4183885;28;20237;-69
2022/07/17 05:52:39;;;;;;;13.70;3.43;;;;;;;13.78;100.00;100468.31;4186687;28;20233;-67
2022/07/17 05:55:06;;;;;;;7.27;2.70;;;;;;;13.66;100.00;100475.00;4181363;28;20244;-69
2022/07/17 05:57:33;;;;;;;9.33;2.97;;;;;;;13.64;100.00;100476.97;4200893;28;20249;-71
2022/07/17 05:59:59;;;;;;;13.57;3.00;;;;;;;13.61;100.00;100478.16;4190590;28;20302;-70
2022/07/17 06:02:26;;;;;;;11.07;2.50;;;;;;;13.78;99.88;100472.84;4202584;28;22111;-69
2022/07/17 06:04:52;;;;;;;11.47;2.53;;;;;;;13.93;100.00;100477.38;4206166;28;20989;-68
2022/07/17 06:07:19;;;;;;;9.87;2.77;;;;;;;13.85;99.22;100480.03;4201377;28;20229;-69
2022/07/17 06:09:46;;;;;;;7.17;2.07;;;;;;;13.92;98.99;100482.88;4201218;28;20240;-67
2022/07/17 06:12:12;;;;;;;12.73;2.37;;;;;;;14.00;98.99;100492.75;4201518;28;20968;-66
2022/07/17 06:14:39;;;;;;;8.40;2.43;;;;;;;13.87;99.30;100487.91;4185244;28;20233;-63
2022/07/17 06:17:06;;;;;;;10.60;2.17;;;;;;;13.77;99.46;100493.41;4188672;28;20573;-63
2022/07/17 06:19:32;;;;;;;7.27;2.00;;;;;;;13.85;99.49;100490.72;4195574;28;20245;-64
2022/07/17 06:21:59;;;;;;;12.67;2.60;;;;;;;13.83;99.20;100498.06;4187638;28;20290;-66
2022/07/17 06:24:25;;;;;;;6.60;2.80;;;;;;;13.92;99.78;100497.09;4193624;28;20229;-64
2022/07/17 06:26:52;;;;;;;12.30;2.50;;;;;;;13.99;99.94;100493.75;4185588;28;20523;-64
2022/07/17 06:29:18;;;;;;;10.17;2.97;;;;;;;14.19;99.21;100494.25;4198410;28;20443;-64
2022/07/17 06:31:45;;;;;;;20.10;3.50;;;;;;;14.63;96.59;100510.81;4192912;28;20244;-68
2022/07/17 06:34:12;;;;;;;10.87;3.90;;;;;;;14.65;94.53;100506.16;4195622;28;20345;-73
2022/07/17 06:36:39;;;;;;;9.23;3.87;;;;;;;14.49;96.32;100514.16;4178336;28;21143;-64
2022/07/17 06:39:05;;;;;;;9.60;3.30;;;;;;;15.74;89.08;100515.34;4189241;28;21356;-70
2022/07/17 06:41:32;;;;;;;6.07;2.63;;;;;;;17.82;79.42;100521.03;4180368;28;20303;-66
2022/07/17 06:43:58;;;;;;;8.37;2.30;;;;;;;19.35;71.04;100527.66;4192696;28;20245;-66
2022/07/17 06:46:25;;;;;;;10.00;2.77;;;;;;;18.73;70.56;100536.56;4193180;28;20240;-63
2022/07/17 06:48:52;;;;;;;9.53;2.97;;;;;;;17.48;76.52;100527.84;4199635;28;21373;-66
2022/07/17 06:51:18;;;;;;;8.57;3.30;;;;;;;16.27;83.45;100523.50;4195702;28;21120;-62
2022/07/17 06:53:45;;;;;;;11.07;3.87;;;;;;;15.54;88.07;100520.25;4198581;28;20233;-65
2022/07/17 06:56:11;;;;;;;7.77;3.93;;;;;;;15.84;87.45;100531.19;4195943;28;21272;-67
2022/07/17 06:58:39;;;;;;;12.40;3.43;;;;;;;17.11;81.27;100533.34;4194790;28;21714;-67
2022/07/17 07:01:05;;;;;;;10.33;3.37;;;;;;;17.65;78.73;100535.69;4185906;28;22824;-68
2022/07/17 07:03:32;;;;;;;12.33;2.77;;;;;;;17.30;78.89;100539.00;4193111;28;20255;-67
2022/07/17 07:05:59;;;;;;;8.93;3.20;;;;;;;16.62;81.66;100540.00;4198358;28;20248;-66
2022/07/17 07:08:25;;;;;;;9.60;4.00;;;;;;;15.84;86.14;100533.88;4193248;28;20249;-73
2022/07/17 07:10:52;;;;;;;5.80;3.70;;;;;;;15.50;89.06;100529.69;4196228;28;21154;-68
2022/07/17 07:13:19;;;;;;;9.67;4.23;;;;;;;15.52;89.33;100535.72;4191085;28;20609;-67
2022/07/17 07:15:45;;;;;;;9.80;3.37;;;;;;;16.08;87.53;100537.44;4195833;28;20465;-70
2022/07/17 07:18:12;;;;;;;12.33;3.83;;;;;;;16.27;86.34;100536.94;4193843;28;20237;-69
2022/07/17 07:20:39;;;;;;;7.33;2.80;;;;;;;16.45;85.97;100542.84;4199595;28;20288;-66
2022/07/17 07:23:05;;;;;;;13.80;3.53;;;;;;;16.15;86.27;100538.38;4196799;28;20295;-67
2022/07/17 07:25:33;;;;;;;9.37;3.57;;;;;;;16.30;86.53;100547.34;4190911;28;20312;-69
2022/07/17 07:28:02;;;;;;;9.13;3.30;;;;;;;16.56;85.75;100552.31;4190224;28;20338;-67
2022/07/17 07:30:28;;;;;;;8.80;3.70;;;;;;;16.41;85.42;100560.34;4191649;28;21192;-62
2022/07/17 07:32:55;;;;;;;8.20;3.70;;;;;;;16.06;86.97;100555.56;4201912;28;20772;-63
2022/07/17 07:35:22;;;;;;;6.33;3.20;;;;;;;16.63;83.95;100563.19;4199589;28;20236;-65
2022/07/17 07:37:49;;;;;;;6.83;3.30;;;;;;;16.48;83.89;100557.75;4197186;28;21165;-68
2022/07/17 07:40:15;;;;;;;6.13;2.87;;;;;;;16.84;83.24;100557.97;4196486;28;20362;-66
2022/07/17 07:42:42;;;;;;;9.03;3.30;;;;;;;17.16;81.74;100560.50;4197417;28;21099;-69
2022/07/17 07:45:09;;;;;;;8.50;2.80;;;;;;;17.39;80.34;100572.00;4193385;28;20283;-70
2022/07/17 07:47:45;;;;;;;5.27;3.10;;;;;;;17.60;78.13;100571.25;4194583;28;23134;-68
2022/07/17 07:50:13;;;;;;;10.23;3.27;;;;;;;18.01;75.90;100570.75;4178545;28;20322;-69
2022/07/17 07:52:40;;;;;;;14.03;4.00;;;;;;;18.10;76.86;100572.28;4185784;28;20233;-68
2022/07/17 07:55:08;;;;;;;9.23;3.10;;;;;;;17.79;78.08;100569.00;4181978;28;20240;-68
2022/07/17 07:57:35;;;;;;;5.97;2.53;;;;;;;17.58;78.82;100573.28;4175259;28;20237;-67
2022/07/17 08:00:01;;;;;;;8.87;2.70;;;;;;;17.92;78.39;100574.56;4199061;28;20686;-68
2022/07/17 08:02:28;;;;;;;8.53;2.93;;;;;;;18.34;75.67;100586.41;4189586;28;21131;-70
2022/07/17 08:04:54;;;;;;;10.03;3.13;;;;;;;18.52;74.04;100581.41;4192247;28;21072;-71
2022/07/17 08:07:21;;;;;;;7.97;2.60;;;;;;;18.16;74.50;100572.53;4189799;28;22826;-74
2022/07/17 08:09:48;;;;;;;6.70;1.93;;;;;;;18.40;74.38;100579.41;4192613;28;20260;-72
2022/07/17 08:12:15;;;;;;;6.07;2.20;;;;;;;18.62;72.12;100588.34;4192302;28;23101;-70
2022/07/17 08:15:02;;;;;;;7.47;2.20;;;;;;;18.37;73.16;100580.63;4197827;28;20338;-72
2022/07/17 08:17:29;;;;;;;2.93;1.40;;;;;;;18.78;72.07;100574.59;4197262;28;21689;-70
2022/07/17 08:19:55;;;;;;;9.57;1.83;;;;;;;19.11;69.33;100579.41;4189970;28;20308;-72
2022/07/17 08:22:22;;;;;;;8.37;2.33;;;;;;;19.07;69.25;100580.81;4202417;28;22257;-73
2022/07/17 08:25:08;;;;;;;6.80;2.20;;;;;;;19.47;69.47;100575.66;4221098;28;21035;-71
2022/07/17 08:27:36;;;;;;;4.73;1.80;;;;;;;19.52;67.95;100581.28;4207699;28;21788;-70
2022/07/17 08:30:05;;;;;;;6.03;2.07;;;;;;;19.36;70.08;100577.91;4185206;28;20965;-62
2022/07/17 08:32:32;;;;;;;5.60;1.70;;;;;;;19.50;65.62;100578.81;4191581;28;20397;-65
2022/07/17 08:34:59;;;;;;;5.10;1.63;;;;;;;19.25;67.81;100570.38;4198707;28;20250;-66
2022/07/17 08:37:26;;;;;;;6.13;2.13;;;;;;;19.02;69.35;100569.81;4183044;28;20294;-66
2022/07/17 08:39:53;;;;;;;8.53;1.77;;;;;;;18.63;68.73;100576.50;4183024;28;20234;-66
2022/07/17 08:42:20;;;;;;;4.57;1.70;;;;;;;18.66;69.46;100566.19;4192879;28;21189;-67
2022/07/17 08:44:47;;;;;;;5.50;1.80;;;;;;;19.01;68.42;100584.31;4212438;28;20236;-66
2022/07/17 08:47:15;;;;;;;5.07;1.80;;;;;;;18.84;67.64;100584.59;4187640;28;20497;-65
2022/07/17 08:49:46;;;;;;;10.13;1.70;;;;;;;19.02;65.17;100585.97;4188772;28;21609;-64
2022/07/17 08:52:13;;;;;;;5.60;1.70;;;;;;;19.45;65.10;100585.81;4206985;28;20609;-64
2022/07/17 08:54:40;;;;;;;4.53;1.50;;;;;;;19.90;61.75;100591.66;4182293;28;22342;-63
2022/07/17 08:57:09;;;;;;;8.33;2.17;;;;;;;19.70;61.34;100578.91;4219174;28;20224;-63
2022/07/17 08:59:35;;;;;;;5.27;1.10;;;;;;;19.98;60.29;100586.09;4208746;28;20244;-70
2022/07/17 09:02:04;;;;;;;6.57;1.20;;;;;;;20.29;56.58;100598.22;4236986;28;20877;-71
2022/07/17 09:04:30;;;;;;;3.10;1.27;;;;;;;20.16;59.23;100577.41;4218153;28;20232;-73
2022/07/17 09:07:02;;;;;;;6.53;1.47;;;;;;;20.09;58.57;100593.59;4223240;28;21735;-67
2022/07/17 09:09:29;;;;;;;3.97;1.20;;;;;;;19.95;59.08;100597.31;4221239;28;20226;-68
2022/07/17 09:11:58;;;;;;;7.73;1.57;;;;;;;19.70;60.24;100591.59;4197819;28;20241;-72
2022/07/17 09:14:39;;;;;;;6.30;1.67;;;;;;;19.63;60.44;100604.19;4187566;28;20299;-71
2022/07/17 09:17:08;;;;;;;3.93;1.30;;;;;;;19.36;61.65;100590.53;4197850;28;20302;-70
2022/07/17 09:19:39;;;;;;;7.03;1.30;;;;;;;19.42;62.21;100589.75;4186877;28;23058;-69
2022/07/17 09:22:22;;;;;;;4.63;1.53;;;;;;;19.85;60.83;100594.13;4187174;28;20300;-70
2022/07/17 09:24:52;;;;;;;3.03;1.10;;;;;;;20.26;57.16;100601.34;4203381;28;20463;-70
2022/07/17 09:27:24;;;;;;;2.80;1.00;;;;;;;20.53;56.26;100605.72;4211126;28;20246;-71
2022/07/17 09:30:11;;;;;;;5.07;1.50;;;;;;;19.95;56.21;100605.41;4189944;28;20270;-70
2022/07/17 09:32:39;;;;;;;4.07;1.30;;;;;;;19.94;57.08;100601.03;4221114;28;20231;-70
2022/07/17 09:35:08;;;;;;;2.20;1.03;;;;;;;19.88;56.96;100601.81;4221623;28;20805;-70
2022/07/17 09:37:36;;;;;;;11.17;1.60;;;;;;;19.64;58.16;100601.28;4223833;28;20236;-68
2022/07/17 09:40:09;;;;;;;7.97;1.53;;;;;;;19.66;56.53;100601.91;4201583;28;20423;-72
2022/07/17 09:42:35;;;;;;;5.30;1.33;;;;;;;19.61;59.21;100597.13;4240527;28;20346;-70
2022/07/17 09:45:09;;;;;;;2.23;1.03;;;;;;;19.94;56.21;100595.63;4199993;28;21317;-70
2022/07/17 09:47:41;;;;;;;3.90;1.00;;;;;;;20.26;53.45;100593.22;4190885;28;20237;-71
2022/07/17 09:50:08;;;;;;;3.73;1.40;;;;;;;20.24;54.78;100594.25;4195198;28;20361;-69
2022/07/17 09:52:37;;;;;;;8.10;1.40;;;;;;;19.85;57.29;100583.34;4194360;28;20243;-73
2022/07/17 09:55:04;;;;;;;6.73;1.43;;;;;;;19.57;58.93;100597.72;4227574;28;20369;-71
2022/07/17 09:57:53;;;;;;;4.73;1.20;;;;;;;19.05;56.82;100602.59;4202724;28;22098;-73
2022/07/17 10:00:22;;;;;;;3.33;1.10;;;;;;;18.71;58.96;100595.25;4209977;28;20247;-69
2022/07/17 10:02:50;;;;;;;3.37;1.37;;;;;;;18.60;60.10;100598.47;4195940;28;20279;-71
2022/07/17 10:05:17;;;;;;;4.00;1.40;;;;;;;18.57;62.15;100602.38;4198244;28;20250;-70
2022/07/17 10:07:47;;;;;;;5.57;1.20;;;;;;;18.49;60.47;100602.50;4204371;28;20311;-69
2022/07/17 10:10:16;;;;;;;5.23;1.20;;;;;;;18.57;60.33;100599.69;4206756;28;22891;-72
2022/07/17 10:12:44;;;;;;;6.60;1.30;;;;;;;18.76;60.58;100603.59;4216752;28;20888;-68
2022/07/17 10:15:10;;;;;;;3.97;1.33;;;;;;;19.10;60.33;100607.41;4189086;28;21229;-68
2022/07/17 10:17:37;;;;;;;3.10;0.90;;;;;;;19.45;59.10;100605.53;4207095;28;20321;-70
2022/07/17 10:20:11;;;;;;;5.10;1.27;;;;;;;19.85;56.81;100610.34;4202168;28;21879;-70
2022/07/17 10:22:45;;;;;;;5.13;1.10;;;;;;;20.02;56.32;100604.38;4199306;28;21769;-69
2022/07/17 10:25:15;;;;;;;3.40;0.90;;;;;;;20.12;52.74;100604.00;4203980;28;20239;-71
2022/07/17 10:28:07;;;;;;;4.20;0.97;;;;;;;19.69;54.74;100604.25;4210269;28;20361;-70
2022/07/17 10:30:34;;;;;;;4.83;1.20;;;;;;;19.45;55.52;100602.84;4193466;28;20636;-71
2022/07/17 10:33:05;;;;;;;3.77;1.13;;;;;;;19.33;56.08;100607.97;4208542;28;21645;-70
2022/07/17 10:35:44;;;;;;;3.23;1.20;;;;;;;19.12;57.05;100613.44;4209898;28;21426;-71
2022/07/17 10:38:12;;;;;;;3.57;1.20;;;;;;;18.88;58.11;100599.34;4212416;28;20303;-72
2022/07/17 10:40:39;;;;;;;5.90;1.60;;;;;;;19.02;59.35;100608.38;4209837;28;22726;-70
2022/07/17 10:43:06;;;;;;;4.10;1.50;;;;;;;19.02;59.34;100612.97;4213576;28;20237;-69
2022/07/17 10:45:42;;;;;;;4.73;1.20;;;;;;;18.99;59.62;100614.19;4200739;28;20249;-71
2022/07/17 10:48:19;;;;;;;4.20;1.50;;;;;;;19.18;60.15;100607.25;4194377;28;20228;-68
2022/07/17 10:50:51;;;;;;;4.20;1.50;;;;;;;19.30;59.91;100605.69;4196888;28;21158;-73
2022/07/17 10:53:26;;;;;;;3.47;1.53;;;;;;;19.39;57.87;100609.88;4213324;28;20232;-69
2022/07/17 10:55:55;;;;;;;10.90;1.67;;;;;;;19.54;56.11;100619.72;4209750;28;20271;-71
2022/07/17 10:58:29;;;;;;;8.03;3.30;;;;;;;19.43;57.46;100620.28;4210463;28;20240;-69
2022/07/17 11:00:57;;;;;;;5.40;2.97;;;;;;;19.26;57.70;100617.88;4213454;28;21139;-68
2022/07/17 11:03:23;;;;;;;3.67;1.20;;;;;;;19.14;56.82;100612.19;4214349;28;24388;-69
2022/07/17 11:05:50;;;;;;;5.63;1.53;;;;;;;19.17;57.12;100608.28;4210457;28;21099;-70
2022/07/17 11:08:17;;;;;;;3.70;1.40;;;;;;;19.43;57.56;100609.47;4211292;28;20353;-69
2022/07/17 11:10:45;;;;;;;3.77;1.40;;;;;;;20.00;54.99;100611.84;4196392;28;20248;-70
2022/07/17 11:13:15;;;;;;;3.93;1.60;;;;;;;19.98;52.65;100613.94;4187882;28;20637;-69
2022/07/17 11:15:46;;;;;;;4.73;1.13;;;;;;;19.76;52.47;100615.94;4196647;28;20523;-69
2022/07/17 11:18:16;;;;;;;3.40;1.50;;;;;;;19.54;50.95;100606.22;4182241;28;20513;-69